createdAt,value
2019-02-26T00:04:05.477Z,99442.48
2019-02-26T00:09:10.503Z,99444.45
2019-02-26T00:14:17.533Z,99437.59
2019-02-26T00:19:17.357Z,99419.05
2019-02-26T00:24:20.737Z,99419.02
2019-02-26T00:29:25.352Z,99418.62
2019-02-26T00:34:27.624Z,99421.95
2019-02-26T00:39:31.538Z,99417.98
2019-02-26T00:44:35.284Z,99436.34
2019-02-26T00:49:37.987Z,99432.44
2019-02-26T00:54:41.436Z,99434.08
2019-02-26T00:59:47.992Z,99439.89
2019-02-26T01:04:50.992Z,99438.20
2019-02-26T01:09:54.658Z,99441.44
2019-02-26T01:14:56.454Z,99445.22
2019-02-26T01:20:01.106Z,99446.30
2019-02-26T01:25:03.501Z,99448.98
2019-02-26T01:30:08.365Z,99453.31
2019-02-26T01:35:12.919Z,99443.11
2019-02-26T01:40:18.392Z,99442.95
2019-02-26T01:45:19.641Z,99428.47
2019-02-26T01:50:22.508Z,99424.89
2019-02-26T01:55:27.701Z,99422.16
2019-02-26T02:00:29.393Z,99425.45
2019-02-26T02:05:32.884Z,99422.03
2019-02-26T02:10:36.333Z,99417.06
2019-02-26T02:15:40.520Z,99418.05
2019-02-26T02:20:43.093Z,99396.06
2019-02-26T02:25:46.610Z,99397.90
2019-02-26T02:30:50.096Z,99387.84
2019-02-26T02:35:53.462Z,99402.69
2019-02-26T02:40:56.818Z,99405.77
2019-02-26T02:46:01.357Z,99400.08
2019-02-26T02:51:05.458Z,99406.92
2019-02-26T02:56:09.859Z,99404.31
2019-02-26T03:01:10.536Z,99408.38
2019-02-26T03:06:13.985Z,99396.23
2019-02-26T03:11:17.343Z,99388.83
2019-02-26T03:16:23.923Z,99379.84
2019-02-26T03:21:27.768Z,99374.72
2019-02-26T03:26:28.772Z,99363.11
2019-02-26T03:31:34.839Z,99358.84
2019-02-26T03:36:38.260Z,99347.64
2019-02-26T03:41:39.112Z,99341.65
2019-02-26T03:46:42.602Z,99345.48
2019-02-26T03:51:46.050Z,99328.61
2019-02-26T03:56:49.440Z,99346.00
2019-02-26T04:01:52.836Z,99344.50
2019-02-26T04:06:58.466Z,99335.09
2019-02-26T04:11:59.620Z,99335.18
2019-02-26T04:17:04.026Z,99341.55
2019-02-26T04:22:18.817Z,99333.80
2019-02-26T04:27:36.327Z,99334.58
2019-02-26T04:32:49.051Z,99320.22
2019-02-26T04:38:04.097Z,99316.50
2019-02-26T04:43:27.820Z,99308.67
2019-02-26T04:48:34.234Z,99303.59
2019-02-26T04:53:36.478Z,99304.87
2019-02-26T04:58:41.894Z,99304.19
2019-02-26T05:03:42.201Z,99299.31
2019-02-26T05:08:46.288Z,99293.38
2019-02-26T05:13:49.753Z,99286.56
2019-02-26T05:18:54.923Z,99301.36
2019-02-26T05:23:57.637Z,99307.26
2019-02-26T05:29:00.346Z,99311.97
2019-02-26T05:34:03.800Z,99320.08
2019-02-26T05:39:08.439Z,99326.84
2019-02-26T05:44:11.905Z,99343.84
2019-02-26T05:49:17.059Z,99339.57
2019-02-26T05:54:21.590Z,99333.83
2019-02-26T05:59:22.480Z,99340.72
2019-02-26T06:04:25.921Z,99342.69
2019-02-26T06:09:31.191Z,99348.59
2019-02-26T06:14:33.773Z,99347.13
2019-02-26T06:19:45.126Z,99344.52
2019-02-26T06:24:48.244Z,99334.83
2019-02-26T06:29:55.048Z,99320.16
2019-02-26T06:34:55.198Z,99337.86
2019-02-26T06:40:00.625Z,99343.19
2019-02-26T06:45:04.009Z,99351.45
2019-02-26T06:50:08.192Z,99336.71
2019-02-26T06:55:10.052Z,99338.69
2019-02-26T07:00:16.236Z,99336.98
2019-02-26T07:05:17.803Z,99329.03
2019-02-26T07:10:24.287Z,99326.84
2019-02-26T07:15:28.736Z,99330.69
2019-02-26T07:20:33.993Z,99329.38
2019-02-26T07:25:33.728Z,99340.13
2019-02-26T07:30:37.452Z,99331.77
2019-02-26T07:35:39.714Z,99332.28
2019-02-26T07:40:42.189Z,99326.16
2019-02-26T07:45:45.576Z,99317.00
2019-02-26T07:50:50.709Z,99321.66
2019-02-26T07:55:52.507Z,99321.38
2019-02-26T08:00:55.901Z,99328.87
2019-02-26T08:06:00.934Z,99337.31
2019-02-26T08:11:02.786Z,99341.42
2019-02-26T08:16:06.283Z,99345.14
2019-02-26T08:21:09.696Z,99329.78
2019-02-26T08:26:15.001Z,99329.53
2019-02-26T08:31:18.511Z,99331.46
2019-02-26T08:36:20.352Z,99321.67
2019-02-26T08:41:23.907Z,99334.30
2019-02-26T08:46:27.321Z,99320.28
2019-02-26T08:51:30.750Z,99316.06
2019-02-26T08:56:36.285Z,99301.48
2019-02-26T09:01:37.688Z,99320.14
2019-02-26T09:06:41.208Z,99321.02
2019-02-26T09:11:44.773Z,99311.97
2019-02-26T09:16:51.957Z,99308.95
2019-02-26T09:21:52.486Z,99310.06
2019-02-26T09:26:57.388Z,99312.75
2019-02-26T09:31:58.829Z,99305.69
2019-02-26T09:37:03.520Z,99304.93
2019-02-26T09:42:06.552Z,99298.48
2019-02-26T09:47:09.386Z,99303.17
2019-02-26T09:52:12.915Z,99295.44
2019-02-26T09:57:18.104Z,99296.56
2019-02-26T10:02:21.864Z,99302.78
2019-02-26T10:07:23.209Z,99304.93
2019-02-26T10:12:27.995Z,99301.97
2019-02-26T10:17:30.161Z,99299.84
2019-02-26T10:22:35.685Z,99299.06
2019-02-26T10:27:38.802Z,99298.02
2019-02-26T10:32:40.544Z,99290.78
2019-02-26T10:37:46.037Z,99277.22
2019-02-26T10:42:49.478Z,99271.92
2019-02-26T10:47:54.190Z,99264.27
2019-02-26T10:53:01.403Z,99255.01
2019-02-26T10:58:04.719Z,99256.39
2019-02-26T11:03:03.753Z,99244.16
2019-02-26T11:08:09.293Z,99241.67
2019-02-26T11:13:13.023Z,99245.23
2019-02-26T11:18:15.131Z,99219.67
2019-02-26T11:23:17.836Z,99208.59
2019-02-26T11:28:21.351Z,99209.48
2019-02-26T11:33:24.923Z,99195.95
2019-02-26T11:38:28.554Z,99188.02
2019-02-26T11:43:31.955Z,99176.55
2019-02-26T11:48:35.457Z,99168.55
2019-02-26T11:53:38.988Z,99154.77
2019-02-26T11:58:42.384Z,99158.78
2019-02-26T12:03:45.880Z,99145.59
2019-02-26T12:08:50.076Z,99136.42
2019-02-26T12:13:53.223Z,99131.27
2019-02-26T12:18:58.674Z,99122.83
2019-02-26T12:24:03.203Z,99112.39
2019-02-26T12:29:04.505Z,99101.83
2019-02-26T12:34:09.164Z,99092.26
2019-02-26T12:39:11.122Z,99085.90
2019-02-26T12:44:16.198Z,99080.48
2019-02-26T12:49:22.399Z,99062.75
2019-02-26T12:54:22.564Z,99056.66
2019-02-26T12:59:26.050Z,99036.97
2019-02-26T13:04:29.477Z,99035.72
2019-02-26T13:09:32.891Z,99032.50
2019-02-26T13:14:36.388Z,99019.59
2019-02-26T13:19:39.791Z,99008.00
2019-02-26T13:24:43.200Z,99000.70
2019-02-26T13:29:53.447Z,98994.10
2019-02-26T13:34:52.513Z,98987.72
2019-02-26T13:39:53.586Z,98990.83
2019-02-26T13:44:57.086Z,98994.59
2019-02-26T13:50:00.574Z,98998.73
2019-02-26T13:55:04.212Z,98994.59
2019-02-26T14:00:08.475Z,98990.90
2019-02-26T14:05:12.039Z,98987.45
2019-02-26T14:10:16.079Z,98981.35
2019-02-26T14:15:22.030Z,98979.64
2019-02-26T14:20:25.489Z,98978.96
2019-02-26T14:25:28.907Z,98968.66
2019-02-26T14:30:32.404Z,98972.61
2019-02-26T14:35:35.901Z,98964.92
2019-02-26T14:40:39.351Z,98949.57
2019-02-26T14:45:42.810Z,98940.55
2019-02-26T14:50:46.250Z,98947.88
2019-02-26T14:55:49.722Z,98947.33
2019-02-26T15:00:57.735Z,98940.05
2019-02-26T15:05:56.749Z,98946.23
2019-02-26T15:11:00.228Z,98939.75
2019-02-26T15:16:03.658Z,98939.59
2019-02-26T15:21:07.197Z,98933.94
2019-02-26T15:26:10.633Z,98936.41
2019-02-26T15:31:14.095Z,98933.22
2019-02-26T15:36:17.529Z,98916.24
2019-02-26T15:41:21.083Z,98923.62
2019-02-26T15:46:24.561Z,98923.07
2019-02-26T15:51:28.007Z,98934.52
2019-02-26T15:56:31.531Z,98936.75
2019-02-26T16:01:34.963Z,98931.34
2019-02-26T16:06:38.500Z,98939.31
2019-02-26T16:11:41.920Z,98942.69
2019-02-26T16:16:45.384Z,98941.97
2019-02-26T16:21:48.864Z,98948.19
2019-02-26T16:26:55.268Z,98950.22
2019-02-26T16:31:58.820Z,98958.77
2019-02-26T16:37:03.278Z,98968.67
2019-02-26T16:42:06.198Z,98964.52
2019-02-26T16:47:09.818Z,98973.15
2019-02-26T16:52:13.320Z,98986.31
2019-02-26T16:57:16.818Z,98987.98
2019-02-26T17:02:20.326Z,98987.06
2019-02-26T17:07:23.782Z,98980.69
2019-02-26T17:12:29.166Z,98994.14
2019-02-26T17:17:30.829Z,98997.08
2019-02-26T17:22:34.378Z,98994.48
2019-02-26T17:27:38.940Z,99003.70
2019-02-26T17:32:41.405Z,99016.73
2019-02-26T17:37:44.862Z,99027.47
2019-02-26T17:42:48.848Z,99025.98
2019-02-26T17:47:51.784Z,99033.59
2019-02-26T17:58:01.941Z,99026.04
2019-02-26T18:03:07.241Z,99004.05
2019-02-26T18:08:08.876Z,99014.88
2019-02-26T18:13:12.391Z,99012.06
2019-02-26T18:18:15.886Z,99009.85
2019-02-26T18:23:19.495Z,99016.06
2019-02-26T18:28:23.049Z,99010.95
2019-02-26T18:33:26.645Z,99018.04
2019-02-26T18:38:30.136Z,99015.60
2019-02-26T18:43:33.781Z,99014.94
2019-02-26T18:48:37.294Z,99012.72
2019-02-26T18:53:41.818Z,99012.55
2019-02-26T18:58:46.661Z,99024.25
2019-02-26T19:03:48.951Z,99018.73
2019-02-26T19:08:52.407Z,99019.16
2019-02-26T19:13:55.907Z,99025.61
2019-02-26T19:19:00.425Z,99019.16
2019-02-26T19:24:04.632Z,99004.51
2019-02-26T19:29:07.486Z,98993.41
2019-02-26T19:34:10.959Z,98983.56
2019-02-26T19:39:14.604Z,98989.95
2019-02-26T19:44:18.150Z,98992.89
2019-02-26T19:49:21.730Z,98984.59
2019-02-26T19:54:25.299Z,98994.33
2019-02-26T19:59:28.740Z,98988.46
2019-02-26T20:04:32.232Z,98978.88
2019-02-26T20:09:38.608Z,98978.42
2019-02-26T20:14:39.392Z,98980.09
2019-02-26T20:19:42.879Z,98972.03
2019-02-26T20:24:46.484Z,98973.48
2019-02-26T20:29:50.792Z,98970.36
2019-02-26T20:34:54.404Z,98964.84
2019-02-26T20:39:57.828Z,98966.11
2019-02-26T20:45:01.436Z,98964.58
2019-02-26T20:50:05.209Z,98968.62
2019-02-26T20:55:10.589Z,98986.30
2019-02-26T21:00:15.600Z,98988.51
2019-02-26T21:05:19.231Z,98993.75
2019-02-26T21:10:22.661Z,99008.64
2019-02-26T21:15:26.148Z,99016.84
2019-02-26T21:20:29.552Z,99019.78
2019-02-26T21:25:33.002Z,99008.34
2019-02-26T21:30:36.468Z,98998.87
2019-02-26T21:35:39.873Z,99005.41
2019-02-26T21:40:43.337Z,99008.73
2019-02-26T21:45:49.105Z,99003.52
2019-02-26T21:50:50.195Z,99007.20
2019-02-26T21:55:55.557Z,99009.01
2019-02-26T22:00:57.122Z,99007.26
2019-02-26T22:06:05.274Z,99005.41
2019-02-26T22:11:04.037Z,99008.58
2019-02-26T22:16:07.621Z,99005.00
2019-02-26T22:21:11.024Z,99014.53
2019-02-26T22:26:14.435Z,99016.38
2019-02-26T22:31:17.874Z,99012.31
2019-02-26T22:36:21.272Z,99013.37
2019-02-26T22:41:24.689Z,99012.77
2019-02-26T22:46:28.227Z,99002.57
2019-02-26T22:51:31.657Z,99008.28
2019-02-26T22:56:35.105Z,99001.98
2019-02-26T23:01:42.936Z,98999.17
2019-02-26T23:06:46.454Z,99005.81
2019-02-26T23:11:49.957Z,98992.99
2019-02-26T23:16:53.372Z,98994.75
2019-02-26T23:21:56.893Z,98991.02
2019-02-26T23:27:00.496Z,98988.95
2019-02-26T23:32:06.133Z,98992.84
2019-02-26T23:37:08.480Z,98991.59
2019-02-26T23:42:11.881Z,98996.19
2019-02-26T23:47:15.239Z,99002.61
2019-02-26T23:52:18.627Z,99005.10
2019-02-26T23:57:22.746Z,98995.27
